sensor_id;sensor_type;location;lat;lon;timestamp;temperature;humidity
1307;DHT22;646;48.696;9.114;2022-11-20T00:01:47;4.80;99.90
1307;DHT22;646;48.696;9.114;2022-11-20T00:04:12;4.10;99.90
1307;DHT22;646;48.696;9.114;2022-11-20T00:06:38;4.40;99.90
1307;DHT22;646;48.696;9.114;2022-11-20T00:09:04;4.70;99.90
1307;DHT22;646;48.696;9.114;2022-11-20T00:11:31;4.40;99.90
1307;DHT22;646;48.696;9.114;2022-11-20T00:13:59;4.70;99.90
1307;DHT22;646;48.696;9.114;2022-11-20T00:16:27;4.70;99.90
1307;DHT22;646;48.696;9.114;2022-11-20T00:18:53;4.50;99.90
1307;DHT22;646;48.696;9.114;2022-11-20T00:21:22;4.10;99.90
1307;DHT22;646;48.696;9.114;2022-11-20T00:23:49;3.80;99.90
1307;DHT22;646;48.696;9.114;2022-11-20T00:26:16;4.30;99.90
1307;DHT22;646;48.696;9.114;2022-11-20T00:28:43;4.40;99.90
1307;DHT22;646;48.696;9.114;2022-11-20T00:31:14;4.40;99.90
1307;DHT22;646;48.696;9.114;2022-11-20T00:33:41;4.30;99.90
1307;DHT22;646;48.696;9.114;2022-11-20T00:36:09;4.00;99.90
1307;DHT22;646;48.696;9.114;2022-11-20T00:38:35;4.70;99.90
1307;DHT22;646;48.696;9.114;2022-11-20T00:41:03;4.50;99.90
1307;DHT22;646;48.696;9.114;2022-11-20T00:43:29;4.50;99.90
1307;DHT22;646;48.696;9.114;2022-11-20T00:46:03;4.10;99.90
1307;DHT22;646;48.696;9.114;2022-11-20T00:48:29;4.00;99.90
1307;DHT22;646;48.696;9.114;2022-11-20T00:50:55;4.30;99.90
1307;DHT22;646;48.696;9.114;2022-11-20T00:53:21;4.70;99.90
1307;DHT22;646;48.696;9.114;2022-11-20T00:56:02;4.20;99.90
1307;DHT22;646;48.696;9.114;2022-11-20T00:58:33;4.90;99.90
1307;DHT22;646;48.696;9.114;2022-11-20T01:01:00;4.30;99.90
1307;DHT22;646;48.696;9.114;2022-11-20T01:03:26;4.70;99.90
1307;DHT22;646;48.696;9.114;2022-11-20T01:05:51;4.60;99.90
1307;DHT22;646;48.696;9.114;2022-11-20T01:08:17;4.80;99.90
1307;DHT22;646;48.696;9.114;2022-11-20T01:10:42;4.60;99.90
1307;DHT22;646;48.696;9.114;2022-11-20T01:13:08;4.10;99.90
1307;DHT22;646;48.696;9.114;2022-11-20T01:15:52;4.70;99.90
1307;DHT22;646;48.696;9.114;2022-11-20T01:18:17;4.50;99.90
1307;DHT22;646;48.696;9.114;2022-11-20T01:20:43;4.30;99.90
1307;DHT22;646;48.696;9.114;2022-11-20T01:23:08;4.50;99.90
1307;DHT22;646;48.696;9.114;2022-11-20T01:25:34;4.10;99.90
1307;DHT22;646;48.696;9.114;2022-11-20T01:28:00;3.50;99.90
1307;DHT22;646;48.696;9.114;2022-11-20T01:30:25;4.10;99.90
1307;DHT22;646;48.696;9.114;2022-11-20T01:32:51;3.90;99.90
1307;DHT22;646;48.696;9.114;2022-11-20T01:35:16;3.90;99.90
1307;DHT22;646;48.696;9.114;2022-11-20T01:37:42;3.60;99.90
1307;DHT22;646;48.696;9.114;2022-11-20T01:40:08;3.10;99.90
1307;DHT22;646;48.696;9.114;2022-11-20T01:42:34;3.70;99.90
1307;DHT22;646;48.696;9.114;2022-11-20T01:48:19;3.40;99.90
1307;DHT22;646;48.696;9.114;2022-11-20T01:50:47;3.30;99.90
1307;DHT22;646;48.696;9.114;2022-11-20T01:53:15;3.20;99.90
1307;DHT22;646;48.696;9.114;2022-11-20T01:55:47;3.40;99.90
1307;DHT22;646;48.696;9.114;2022-11-20T01:58:14;3.00;99.90
1307;DHT22;646;48.696;9.114;2022-11-20T02:00:40;3.20;99.90
1307;DHT22;646;48.696;9.114;2022-11-20T02:03:10;3.10;99.90
1307;DHT22;646;48.696;9.114;2022-11-20T02:05:45;2.70;99.90
1307;DHT22;646;48.696;9.114;2022-11-20T02:08:11;3.00;99.90
1307;DHT22;646;48.696;9.114;2022-11-20T02:10:37;3.00;99.90
1307;DHT22;646;48.696;9.114;2022-11-20T02:13:03;2.60;99.90
1307;DHT22;646;48.696;9.114;2022-11-20T02:15:48;3.10;99.90
1307;DHT22;646;48.696;9.114;2022-11-20T02:18:17;2.90;99.90
1307;DHT22;646;48.696;9.114;2022-11-20T02:20:45;2.90;99.90
1307;DHT22;646;48.696;9.114;2022-11-20T02:23:32;2.80;99.90
1307;DHT22;646;48.696;9.114;2022-11-20T02:26:01;3.10;99.90
1307;DHT22;646;48.696;9.114;2022-11-20T02:28:27;2.50;99.90
1307;DHT22;646;48.696;9.114;2022-11-20T02:30:53;3.00;99.90
1307;DHT22;646;48.696;9.114;2022-11-20T02:33:18;3.00;99.90
1307;DHT22;646;48.696;9.114;2022-11-20T02:35:47;3.00;99.90
1307;DHT22;646;48.696;9.114;2022-11-20T02:38:14;3.00;99.90
1307;DHT22;646;48.696;9.114;2022-11-20T02:40:40;3.00;99.90
1307;DHT22;646;48.696;9.114;2022-11-20T02:43:06;3.10;99.90
1307;DHT22;646;48.696;9.114;2022-11-20T02:45:32;3.30;99.90
1307;DHT22;646;48.696;9.114;2022-11-20T02:47:58;3.30;99.90
1307;DHT22;646;48.696;9.114;2022-11-20T02:50:23;2.80;99.90
1307;DHT22;646;48.696;9.114;2022-11-20T02:52:49;3.40;99.90
1307;DHT22;646;48.696;9.114;2022-11-20T02:55:14;3.50;99.90
1307;DHT22;646;48.696;9.114;2022-11-20T02:57:40;3.60;99.90
1307;DHT22;646;48.696;9.114;2022-11-20T03:00:06;3.20;99.90
1307;DHT22;646;48.696;9.114;2022-11-20T03:02:32;3.80;99.90
1307;DHT22;646;48.696;9.114;2022-11-20T03:04:58;3.70;99.90
1307;DHT22;646;48.696;9.114;2022-11-20T03:07:24;3.50;99.90
1307;DHT22;646;48.696;9.114;2022-11-20T03:09:49;4.10;99.90
1307;DHT22;646;48.696;9.114;2022-11-20T03:12:15;4.00;99.90
1307;DHT22;646;48.696;9.114;2022-11-20T03:14:40;4.00;99.90
1307;DHT22;646;48.696;9.114;2022-11-20T03:17:06;3.70;99.90
1307;DHT22;646;48.696;9.114;2022-11-20T03:19:31;4.10;99.90
1307;DHT22;646;48.696;9.114;2022-11-20T03:21:57;3.80;99.90
1307;DHT22;646;48.696;9.114;2022-11-20T03:24:22;3.90;99.90
1307;DHT22;646;48.696;9.114;2022-11-20T03:26:48;4.40;99.90
1307;DHT22;646;48.696;9.114;2022-11-20T03:29:14;4.30;99.90
1307;DHT22;646;48.696;9.114;2022-11-20T03:31:40;3.80;99.90
1307;DHT22;646;48.696;9.114;2022-11-20T03:34:07;3.70;99.90
1307;DHT22;646;48.696;9.114;2022-11-20T03:36:33;4.30;99.90
1307;DHT22;646;48.696;9.114;2022-11-20T03:38:59;4.20;99.90
1307;DHT22;646;48.696;9.114;2022-11-20T03:41:26;4.00;99.90
1307;DHT22;646;48.696;9.114;2022-11-20T03:43:55;3.70;99.90
1307;DHT22;646;48.696;9.114;2022-11-20T03:46:21;4.10;99.90
1307;DHT22;646;48.696;9.114;2022-11-20T03:48:47;3.50;99.90
1307;DHT22;646;48.696;9.114;2022-11-20T03:51:21;3.40;99.90
1307;DHT22;646;48.696;9.114;2022-11-20T03:53:48;3.60;99.90
1307;DHT22;646;48.696;9.114;2022-11-20T03:56:16;3.80;99.90
1307;DHT22;646;48.696;9.114;2022-11-20T03:58:43;3.30;99.90
1307;DHT22;646;48.696;9.114;2022-11-20T04:01:11;3.40;99.90
1307;DHT22;646;48.696;9.114;2022-11-20T04:03:38;3.50;99.90
1307;DHT22;646;48.696;9.114;2022-11-20T04:06:06;3.30;99.90
1307;DHT22;646;48.696;9.114;2022-11-20T04:08:32;3.40;99.90
1307;DHT22;646;48.696;9.114;2022-11-20T04:11:08;3.60;99.90
1307;DHT22;646;48.696;9.114;2022-11-20T04:13:33;3.50;99.90
1307;DHT22;646;48.696;9.114;2022-11-20T04:15:59;3.00;99.90
1307;DHT22;646;48.696;9.114;2022-11-20T04:18:24;3.50;99.90
1307;DHT22;646;48.696;9.114;2022-11-20T04:20:50;3.60;99.90
1307;DHT22;646;48.696;9.114;2022-11-20T04:23:15;3.40;99.90
1307;DHT22;646;48.696;9.114;2022-11-20T04:25:41;3.60;99.90
1307;DHT22;646;48.696;9.114;2022-11-20T04:28:06;3.10;99.90
1307;DHT22;646;48.696;9.114;2022-11-20T04:30:32;3.50;99.90
1307;DHT22;646;48.696;9.114;2022-11-20T04:32:57;3.20;99.90
1307;DHT22;646;48.696;9.114;2022-11-20T04:35:23;3.80;99.90
1307;DHT22;646;48.696;9.114;2022-11-20T04:37:51;3.10;99.90
1307;DHT22;646;48.696;9.114;2022-11-20T04:40:17;3.90;99.90
1307;DHT22;646;48.696;9.114;2022-11-20T04:42:42;3.20;99.90
1307;DHT22;646;48.696;9.114;2022-11-20T04:45:08;3.80;99.90
1307;DHT22;646;48.696;9.114;2022-11-20T04:47:34;3.90;99.90
1307;DHT22;646;48.696;9.114;2022-11-20T04:49:59;3.90;99.90
1307;DHT22;646;48.696;9.114;2022-11-20T04:52:25;3.80;99.90
1307;DHT22;646;48.696;9.114;2022-11-20T04:54:50;3.60;99.90
1307;DHT22;646;48.696;9.114;2022-11-20T04:57:18;4.10;99.90
1307;DHT22;646;48.696;9.114;2022-11-20T04:59:43;3.60;99.90
1307;DHT22;646;48.696;9.114;2022-11-20T05:02:09;4.40;99.90
1307;DHT22;646;48.696;9.114;2022-11-20T05:04:35;4.50;99.90
1307;DHT22;646;48.696;9.114;2022-11-20T05:07:00;4.40;99.90
1307;DHT22;646;48.696;9.114;2022-11-20T05:09:26;4.60;99.90
1307;DHT22;646;48.696;9.114;2022-11-20T05:11:52;4.60;99.90
1307;DHT22;646;48.696;9.114;2022-11-20T05:14:17;4.50;99.90
1307;DHT22;646;48.696;9.114;2022-11-20T05:16:43;4.60;99.90
1307;DHT22;646;48.696;9.114;2022-11-20T05:19:08;4.70;99.90
1307;DHT22;646;48.696;9.114;2022-11-20T05:21:34;4.90;99.90
1307;DHT22;646;48.696;9.114;2022-11-20T05:23:59;4.60;99.90
1307;DHT22;646;48.696;9.114;2022-11-20T05:26:25;4.50;99.90
1307;DHT22;646;48.696;9.114;2022-11-20T05:28:51;4.80;99.90
1307;DHT22;646;48.696;9.114;2022-11-20T05:31:22;4.80;99.90
1307;DHT22;646;48.696;9.114;2022-11-20T05:33:48;5.00;99.90
1307;DHT22;646;48.696;9.114;2022-11-20T05:36:14;5.00;99.90
1307;DHT22;646;48.696;9.114;2022-11-20T05:38:41;5.00;99.90
1307;DHT22;646;48.696;9.114;2022-11-20T05:41:09;4.60;99.90
1307;DHT22;646;48.696;9.114;2022-11-20T05:43:36;4.90;99.90
1307;DHT22;646;48.696;9.114;2022-11-20T05:46:02;4.30;99.90
1307;DHT22;646;48.696;9.114;2022-11-20T05:48:28;4.20;99.90
1307;DHT22;646;48.696;9.114;2022-11-20T05:50:54;4.30;99.90
1307;DHT22;646;48.696;9.114;2022-11-20T05:53:21;4.60;99.90
1307;DHT22;646;48.696;9.114;2022-11-20T05:55:55;4.90;99.90
1307;DHT22;646;48.696;9.114;2022-11-20T05:58:20;4.50;99.90
1307;DHT22;646;48.696;9.114;2022-11-20T06:00:46;4.60;99.90
1307;DHT22;646;48.696;9.114;2022-11-20T06:03:11;5.00;99.90
1307;DHT22;646;48.696;9.114;2022-11-20T06:05:37;5.00;99.90
1307;DHT22;646;48.696;9.114;2022-11-20T06:08:02;4.30;99.90
1307;DHT22;646;48.696;9.114;2022-11-20T06:10:28;5.00;99.90
1307;DHT22;646;48.696;9.114;2022-11-20T06:12:56;4.70;99.90
1307;DHT22;646;48.696;9.114;2022-11-20T06:15:22;4.40;99.90
1307;DHT22;646;48.696;9.114;2022-11-20T06:17:52;4.30;99.90
1307;DHT22;646;48.696;9.114;2022-11-20T06:20:18;4.80;99.90
1307;DHT22;646;48.696;9.114;2022-11-20T06:22:43;4.80;99.90
1307;DHT22;646;48.696;9.114;2022-11-20T06:25:09;4.80;99.90
1307;DHT22;646;48.696;9.114;2022-11-20T06:27:34;5.00;99.90
1307;DHT22;646;48.696;9.114;2022-11-20T06:30:00;4.90;99.90
1307;DHT22;646;48.696;9.114;2022-11-20T06:32:25;4.50;99.90
1307;DHT22;646;48.696;9.114;2022-11-20T06:34:51;5.20;99.90
1307;DHT22;646;48.696;9.114;2022-11-20T06:37:16;5.10;99.90
1307;DHT22;646;48.696;9.114;2022-11-20T06:39:42;5.10;99.90
1307;DHT22;646;48.696;9.114;2022-11-20T06:42:07;4.60;99.90
1307;DHT22;646;48.696;9.114;2022-11-20T06:44:33;4.90;99.90
1307;DHT22;646;48.696;9.114;2022-11-20T06:46:58;4.40;99.90
1307;DHT22;646;48.696;9.114;2022-11-20T06:49:24;5.00;99.90
1307;DHT22;646;48.696;9.114;2022-11-20T06:51:50;4.90;99.90
1307;DHT22;646;48.696;9.114;2022-11-20T06:54:16;4.60;99.90
1307;DHT22;646;48.696;9.114;2022-11-20T06:56:41;5.20;99.90
1307;DHT22;646;48.696;9.114;2022-11-20T06:59:07;5.20;99.90
1307;DHT22;646;48.696;9.114;2022-11-20T07:01:33;4.70;99.90
1307;DHT22;646;48.696;9.114;2022-11-20T07:03:59;4.30;99.90
1307;DHT22;646;48.696;9.114;2022-11-20T07:06:24;4.70;99.90
1307;DHT22;646;48.696;9.114;2022-11-20T07:08:51;5.00;99.90
1307;DHT22;646;48.696;9.114;2022-11-20T07:11:17;4.60;99.90
1307;DHT22;646;48.696;9.114;2022-11-20T07:13:43;5.00;99.90
1307;DHT22;646;48.696;9.114;2022-11-20T07:16:09;5.00;99.90
1307;DHT22;646;48.696;9.114;2022-11-20T07:18:34;4.90;99.90
1307;DHT22;646;48.696;9.114;2022-11-20T07:21:06;4.80;99.90
1307;DHT22;646;48.696;9.114;2022-11-20T07:23:32;4.60;99.90
1307;DHT22;646;48.696;9.114;2022-11-20T07:25:58;5.30;99.90
1307;DHT22;646;48.696;9.114;2022-11-20T07:28:27;4.90;99.90
1307;DHT22;646;48.696;9.114;2022-11-20T07:30:53;5.10;99.90
1307;DHT22;646;48.696;9.114;2022-11-20T07:33:19;5.20;99.90
1307;DHT22;646;48.696;9.114;2022-11-20T07:35:45;5.40;99.90
1307;DHT22;646;48.696;9.114;2022-11-20T07:38:10;5.30;99.90
1307;DHT22;646;48.696;9.114;2022-11-20T07:40:36;5.00;99.90
1307;DHT22;646;48.696;9.114;2022-11-20T07:43:01;5.10;99.90
1307;DHT22;646;48.696;9.114;2022-11-20T07:45:27;5.10;99.90
1307;DHT22;646;48.696;9.114;2022-11-20T07:47:52;5.20;99.90
1307;DHT22;646;48.696;9.114;2022-11-20T07:50:19;4.70;99.90
1307;DHT22;646;48.696;9.114;2022-11-20T07:52:45;5.40;99.90
1307;DHT22;646;48.696;9.114;2022-11-20T07:55:10;5.60;99.90
1307;DHT22;646;48.696;9.114;2022-11-20T07:57:36;5.10;99.90
1307;DHT22;646;48.696;9.114;2022-11-20T08:00:03;5.80;99.90
1307;DHT22;646;48.696;9.114;2022-11-20T08:02:29;5.80;99.90
1307;DHT22;646;48.696;9.114;2022-11-20T08:04:55;5.80;99.90
1307;DHT22;646;48.696;9.114;2022-11-20T08:07:20;5.40;99.90
1307;DHT22;646;48.696;9.114;2022-11-20T08:09:46;5.80;99.90
1307;DHT22;646;48.696;9.114;2022-11-20T08:12:18;6.00;99.90
1307;DHT22;646;48.696;9.114;2022-11-20T08:15:04;5.90;99.90
1307;DHT22;646;48.696;9.114;2022-11-20T08:17:29;5.90;99.90
1307;DHT22;646;48.696;9.114;2022-11-20T08:19:55;5.80;99.90
1307;DHT22;646;48.696;9.114;2022-11-20T08:22:20;5.80;99.90
1307;DHT22;646;48.696;9.114;2022-11-20T08:24:46;6.10;99.90
1307;DHT22;646;48.696;9.114;2022-11-20T08:27:12;6.30;99.90
1307;DHT22;646;48.696;9.114;2022-11-20T08:29:37;5.90;99.90
1307;DHT22;646;48.696;9.114;2022-11-20T08:32:03;5.90;99.90
1307;DHT22;646;48.696;9.114;2022-11-20T08:34:29;6.40;99.90
1307;DHT22;646;48.696;9.114;2022-11-20T08:36:54;5.90;99.90
1307;DHT22;646;48.696;9.114;2022-11-20T08:39:20;6.00;99.90
1307;DHT22;646;48.696;9.114;2022-11-20T08:41:45;5.90;99.90
1307;DHT22;646;48.696;9.114;2022-11-20T08:44:11;6.40;99.90
1307;DHT22;646;48.696;9.114;2022-11-20T08:46:39;6.60;99.90
1307;DHT22;646;48.696;9.114;2022-11-20T08:49:07;6.10;99.90
1307;DHT22;646;48.696;9.114;2022-11-20T08:51:34;6.80;99.90
1307;DHT22;646;48.696;9.114;2022-11-20T08:53:59;6.70;99.90
1307;DHT22;646;48.696;9.114;2022-11-20T08:56:25;6.40;99.90
1307;DHT22;646;48.696;9.114;2022-11-20T08:58:51;6.90;99.90
1307;DHT22;646;48.696;9.114;2022-11-20T09:01:18;7.00;99.90
1307;DHT22;646;48.696;9.114;2022-11-20T09:03:43;7.10;99.90
1307;DHT22;646;48.696;9.114;2022-11-20T09:06:09;7.40;99.90
1307;DHT22;646;48.696;9.114;2022-11-20T09:08:35;6.90;99.90
1307;DHT22;646;48.696;9.114;2022-11-20T09:11:02;7.30;99.90
1307;DHT22;646;48.696;9.114;2022-11-20T09:13:28;7.90;99.90
1307;DHT22;646;48.696;9.114;2022-11-20T09:18:20;8.00;99.90
1307;DHT22;646;48.696;9.114;2022-11-20T09:20:46;7.70;99.90
1307;DHT22;646;48.696;9.114;2022-11-20T09:23:11;7.20;99.90
1307;DHT22;646;48.696;9.114;2022-11-20T09:25:37;7.40;99.90
1307;DHT22;646;48.696;9.114;2022-11-20T09:28:02;7.60;99.90
1307;DHT22;646;48.696;9.114;2022-11-20T09:30:28;7.40;99.90
1307;DHT22;646;48.696;9.114;2022-11-20T09:32:53;7.10;99.90
1307;DHT22;646;48.696;9.114;2022-11-20T09:35:19;7.00;99.90
1307;DHT22;646;48.696;9.114;2022-11-20T09:37:45;6.80;99.90
1307;DHT22;646;48.696;9.114;2022-11-20T09:40:23;6.80;99.90
1307;DHT22;646;48.696;9.114;2022-11-20T09:43:10;7.50;99.90
1307;DHT22;646;48.696;9.114;2022-11-20T09:48:58;7.30;99.90
1307;DHT22;646;48.696;9.114;2022-11-20T09:54:22;6.90;99.90
1307;DHT22;646;48.696;9.114;2022-11-20T09:56:58;7.30;99.90
1307;DHT22;646;48.696;9.114;2022-11-20T10:02:01;8.00;99.90
1307;DHT22;646;48.696;9.114;2022-11-20T10:04:31;7.80;99.90
1307;DHT22;646;48.696;9.114;2022-11-20T10:07:20;7.30;99.90
1307;DHT22;646;48.696;9.114;2022-11-20T10:09:53;7.70;99.90
1307;DHT22;646;48.696;9.114;2022-11-20T10:20:43;7.70;99.90
1307;DHT22;646;48.696;9.114;2022-11-20T10:26:03;7.30;99.90
1307;DHT22;646;48.696;9.114;2022-11-20T10:31:38;7.40;99.90
1307;DHT22;646;48.696;9.114;2022-11-20T10:34:17;7.40;99.90
1307;DHT22;646;48.696;9.114;2022-11-20T10:36:52;7.00;99.90
1307;DHT22;646;48.696;9.114;2022-11-20T10:39:35;7.70;99.90
1307;DHT22;646;48.696;9.114;2022-11-20T10:42:00;7.60;99.90
1307;DHT22;646;48.696;9.114;2022-11-20T10:44:27;7.20;99.90
1307;DHT22;646;48.696;9.114;2022-11-20T10:47:17;7.70;99.90
1307;DHT22;646;48.696;9.114;2022-11-20T10:49:48;7.70;99.90
1307;DHT22;646;48.696;9.114;2022-11-20T10:52:38;7.10;99.90
1307;DHT22;646;48.696;9.114;2022-11-20T10:58:00;7.30;99.90
1307;DHT22;646;48.696;9.114;2022-11-20T11:00:31;6.90;99.90
1307;DHT22;646;48.696;9.114;2022-11-20T11:02:56;7.20;99.90
1307;DHT22;646;48.696;9.114;2022-11-20T11:05:41;7.10;99.90
1307;DHT22;646;48.696;9.114;2022-11-20T11:08:15;7.10;99.90
1307;DHT22;646;48.696;9.114;2022-11-20T11:10:54;6.70;99.90
1307;DHT22;646;48.696;9.114;2022-11-20T11:13:23;7.40;99.90
1307;DHT22;646;48.696;9.114;2022-11-20T11:15:49;7.30;99.90
1307;DHT22;646;48.696;9.114;2022-11-20T11:18:27;7.10;99.90
1307;DHT22;646;48.696;9.114;2022-11-20T11:20:54;7.80;99.90
1307;DHT22;646;48.696;9.114;2022-11-20T11:23:36;7.30;99.90
1307;DHT22;646;48.696;9.114;2022-11-20T11:26:05;7.70;99.90
1307;DHT22;646;48.696;9.114;2022-11-20T11:28:32;7.90;99.90
1307;DHT22;646;48.696;9.114;2022-11-20T11:30:57;7.60;99.90
1307;DHT22;646;48.696;9.114;2022-11-20T11:33:24;9.40;99.90
1307;DHT22;646;48.696;9.114;2022-11-20T11:35:58;9.60;99.90
1307;DHT22;646;48.696;9.114;2022-11-20T11:38:32;9.40;99.90
1307;DHT22;646;48.696;9.114;2022-11-20T11:40:59;9.40;99.90
1307;DHT22;646;48.696;9.114;2022-11-20T11:43:34;8.80;99.90
1307;DHT22;646;48.696;9.114;2022-11-20T11:46:35;9.60;99.90
1307;DHT22;646;48.696;9.114;2022-11-20T11:49:17;11.50;99.90
1307;DHT22;646;48.696;9.114;2022-11-20T11:52:05;14.20;99.90
1307;DHT22;646;48.696;9.114;2022-11-20T11:54:58;16.80;99.90
1307;DHT22;646;48.696;9.114;2022-11-20T11:57:29;19.40;99.90
1307;DHT22;646;48.696;9.114;2022-11-20T12:00:21;21.00;99.90
1307;DHT22;646;48.696;9.114;2022-11-20T12:05:34;20.30;73.90
1307;DHT22;646;48.696;9.114;2022-11-20T12:08:06;19.40;72.30
1307;DHT22;646;48.696;9.114;2022-11-20T12:10:50;18.90;71.50
1307;DHT22;646;48.696;9.114;2022-11-20T12:16:00;19.90;87.90
1307;DHT22;646;48.696;9.114;2022-11-20T12:18:27;20.90;67.10
1307;DHT22;646;48.696;9.114;2022-11-20T12:21:20;21.10;64.70
1307;DHT22;646;48.696;9.114;2022-11-20T12:30:19;18.90;55.60
1307;DHT22;646;48.696;9.114;2022-11-20T12:33:06;17.10;57.60
1307;DHT22;646;48.696;9.114;2022-11-20T12:36:12;16.60;59.30
1307;DHT22;646;48.696;9.114;2022-11-20T12:38:51;15.20;60.80
1307;DHT22;646;48.696;9.114;2022-11-20T12:52:56;12.80;73.70
1307;DHT22;646;48.696;9.114;2022-11-20T12:57:55;13.90;83.30
1307;DHT22;646;48.696;9.114;2022-11-20T13:00:23;15.20;76.00
1307;DHT22;646;48.696;9.114;2022-11-20T13:05:47;18.70;70.70
1307;DHT22;646;48.696;9.114;2022-11-20T13:08:31;19.80;71.00
1307;DHT22;646;48.696;9.114;2022-11-20T13:11:09;21.70;73.30
1307;DHT22;646;48.696;9.114;2022-11-20T13:16:25;22.70;49.30
1307;DHT22;646;48.696;9.114;2022-11-20T13:18:53;22.40;52.80
1307;DHT22;646;48.696;9.114;2022-11-20T13:21:44;21.60;58.00
1307;DHT22;646;48.696;9.114;2022-11-20T13:29:34;18.90;47.50
1307;DHT22;646;48.696;9.114;2022-11-20T13:32:06;17.90;50.90
1307;DHT22;646;48.696;9.114;2022-11-20T13:34:34;17.70;49.10
1307;DHT22;646;48.696;9.114;2022-11-20T13:37:01;18.40;56.90
1307;DHT22;646;48.696;9.114;2022-11-20T13:39:36;19.00;51.70
1307;DHT22;646;48.696;9.114;2022-11-20T13:42:26;19.30;54.90
1307;DHT22;646;48.696;9.114;2022-11-20T13:45:01;18.40;48.90
1307;DHT22;646;48.696;9.114;2022-11-20T13:47:33;17.70;52.00
1307;DHT22;646;48.696;9.114;2022-11-20T13:50:03;16.70;57.20
1307;DHT22;646;48.696;9.114;2022-11-20T13:55:43;15.30;55.20
1307;DHT22;646;48.696;9.114;2022-11-20T14:01:14;14.40;66.80
1307;DHT22;646;48.696;9.114;2022-11-20T14:03:40;14.50;70.90
1307;DHT22;646;48.696;9.114;2022-11-20T14:06:14;14.40;63.10
1307;DHT22;646;48.696;9.114;2022-11-20T14:08:45;14.90;64.00
1307;DHT22;646;48.696;9.114;2022-11-20T14:11:21;14.80;59.50
1307;DHT22;646;48.696;9.114;2022-11-20T14:14:00;14.00;57.10
1307;DHT22;646;48.696;9.114;2022-11-20T14:16:31;13.00;58.10
1307;DHT22;646;48.696;9.114;2022-11-20T14:18:57;12.40;59.50
1307;DHT22;646;48.696;9.114;2022-11-20T14:21:29;11.00;61.80
1307;DHT22;646;48.696;9.114;2022-11-20T14:24:10;10.40;61.40
1307;DHT22;646;48.696;9.114;2022-11-20T14:26:38;10.40;66.60
1307;DHT22;646;48.696;9.114;2022-11-20T14:29:15;10.20;68.90
1307;DHT22;646;48.696;9.114;2022-11-20T14:31:42;9.40;72.70
1307;DHT22;646;48.696;9.114;2022-11-20T14:34:21;9.50;73.30
1307;DHT22;646;48.696;9.114;2022-11-20T14:36:47;9.40;74.10
1307;DHT22;646;48.696;9.114;2022-11-20T14:39:25;8.60;74.50
1307;DHT22;646;48.696;9.114;2022-11-20T14:41:52;9.10;78.50
1307;DHT22;646;48.696;9.114;2022-11-20T14:44:23;8.90;79.70
1307;DHT22;646;48.696;9.114;2022-11-20T14:46:48;8.30;79.30
1307;DHT22;646;48.696;9.114;2022-11-20T14:49:16;8.50;81.40
1307;DHT22;646;48.696;9.114;2022-11-20T14:51:42;8.60;83.40
1307;DHT22;646;48.696;9.114;2022-11-20T14:56:34;8.50;87.00
1307;DHT22;646;48.696;9.114;2022-11-20T14:58:59;7.80;88.10
1307;DHT22;646;48.696;9.114;2022-11-20T15:01:27;7.90;90.00
1307;DHT22;646;48.696;9.114;2022-11-20T15:04:06;8.40;90.70
1307;DHT22;646;48.696;9.114;2022-11-20T15:06:32;8.20;91.00
1307;DHT22;646;48.696;9.114;2022-11-20T15:08:58;7.60;92.10
1307;DHT22;646;48.696;9.114;2022-11-20T15:11:34;7.50;93.00
1307;DHT22;646;48.696;9.114;2022-11-20T15:14:09;7.40;94.20
1307;DHT22;646;48.696;9.114;2022-11-20T15:16:34;7.20;95.80
1307;DHT22;646;48.696;9.114;2022-11-20T15:19:02;7.40;96.60
1307;DHT22;646;48.696;9.114;2022-11-20T15:21:28;7.00;97.60
1307;DHT22;646;48.696;9.114;2022-11-20T15:23:54;7.00;98.50
1307;DHT22;646;48.696;9.114;2022-11-20T15:26:26;7.40;99.90
1307;DHT22;646;48.696;9.114;2022-11-20T15:28:52;6.80;99.90
1307;DHT22;646;48.696;9.114;2022-11-20T15:31:20;6.60;99.90
1307;DHT22;646;48.696;9.114;2022-11-20T15:33:46;6.60;99.90
1307;DHT22;646;48.696;9.114;2022-11-20T15:36:11;6.60;99.90
1307;DHT22;646;48.696;9.114;2022-11-20T15:38:38;6.40;99.90
1307;DHT22;646;48.696;9.114;2022-11-20T15:41:04;6.80;99.90
1307;DHT22;646;48.696;9.114;2022-11-20T15:43:30;6.70;99.90
1307;DHT22;646;48.696;9.114;2022-11-20T15:45:59;6.60;99.90
1307;DHT22;646;48.696;9.114;2022-11-20T15:48:27;6.40;99.90
1307;DHT22;646;48.696;9.114;2022-11-20T15:50:58;6.60;99.90
1307;DHT22;646;48.696;9.114;2022-11-20T15:53:25;6.40;99.90
1307;DHT22;646;48.696;9.114;2022-11-20T15:55:50;5.70;99.90
1307;DHT22;646;48.696;9.114;2022-11-20T15:58:16;6.10;99.90
1307;DHT22;646;48.696;9.114;2022-11-20T16:00:44;5.60;99.90
1307;DHT22;646;48.696;9.114;2022-11-20T16:03:14;5.80;99.90
1307;DHT22;646;48.696;9.114;2022-11-20T16:05:40;6.10;99.90
1307;DHT22;646;48.696;9.114;2022-11-20T16:08:06;6.00;99.90
1307;DHT22;646;48.696;9.114;2022-11-20T16:10:31;5.50;99.90
1307;DHT22;646;48.696;9.114;2022-11-20T16:12:57;5.50;99.90
1307;DHT22;646;48.696;9.114;2022-11-20T16:15:41;6.00;99.90
1307;DHT22;646;48.696;9.114;2022-11-20T16:18:17;6.00;99.90
1307;DHT22;646;48.696;9.114;2022-11-20T16:20:45;6.00;99.90
1307;DHT22;646;48.696;9.114;2022-11-20T16:23:11;5.70;99.90
1307;DHT22;646;48.696;9.114;2022-11-20T16:25:37;6.10;99.90
1307;DHT22;646;48.696;9.114;2022-11-20T16:28:03;6.30;99.90
1307;DHT22;646;48.696;9.114;2022-11-20T16:30:29;5.90;99.90
1307;DHT22;646;48.696;9.114;2022-11-20T16:32:55;6.30;99.90
1307;DHT22;646;48.696;9.114;2022-11-20T16:35:21;6.30;99.90
1307;DHT22;646;48.696;9.114;2022-11-20T16:37:46;6.20;99.90
1307;DHT22;646;48.696;9.114;2022-11-20T16:40:12;6.60;99.90
1307;DHT22;646;48.696;9.114;2022-11-20T16:42:37;6.20;99.90
1307;DHT22;646;48.696;9.114;2022-11-20T16:45:04;5.80;99.90
1307;DHT22;646;48.696;9.114;2022-11-20T16:47:34;6.40;99.90
1307;DHT22;646;48.696;9.114;2022-11-20T16:50:03;6.40;99.90
1307;DHT22;646;48.696;9.114;2022-11-20T16:52:29;6.40;99.90
1307;DHT22;646;48.696;9.114;2022-11-20T16:54:56;6.50;99.90
1307;DHT22;646;48.696;9.114;2022-11-20T16:57:21;6.20;99.90
1307;DHT22;646;48.696;9.114;2022-11-20T16:59:47;6.50;99.90
1307;DHT22;646;48.696;9.114;2022-11-20T17:02:13;6.30;99.90
1307;DHT22;646;48.696;9.114;2022-11-20T17:04:38;6.00;99.90
1307;DHT22;646;48.696;9.114;2022-11-20T17:07:04;6.50;99.90
1307;DHT22;646;48.696;9.114;2022-11-20T17:09:29;6.50;99.90
1307;DHT22;646;48.696;9.114;2022-11-20T17:11:55;6.50;99.90
1307;DHT22;646;48.696;9.114;2022-11-20T17:14:20;6.10;99.90
1307;DHT22;646;48.696;9.114;2022-11-20T17:16:46;6.00;99.90
1307;DHT22;646;48.696;9.114;2022-11-20T17:19:12;6.40;99.90
1307;DHT22;646;48.696;9.114;2022-11-20T17:21:38;6.60;99.90
1307;DHT22;646;48.696;9.114;2022-11-20T17:24:06;6.60;99.90
1307;DHT22;646;48.696;9.114;2022-11-20T17:26:32;6.30;99.90
1307;DHT22;646;48.696;9.114;2022-11-20T17:29:00;6.70;99.90
1307;DHT22;646;48.696;9.114;2022-11-20T17:31:27;6.60;99.90
1307;DHT22;646;48.696;9.114;2022-11-20T17:33:53;6.80;99.90
1307;DHT22;646;48.696;9.114;2022-11-20T17:36:19;6.10;99.90
1307;DHT22;646;48.696;9.114;2022-11-20T17:38:45;6.10;99.90
1307;DHT22;646;48.696;9.114;2022-11-20T17:41:13;6.40;99.90
1307;DHT22;646;48.696;9.114;2022-11-20T17:43:40;6.80;99.90
1307;DHT22;646;48.696;9.114;2022-11-20T17:46:09;6.60;99.90
1307;DHT22;646;48.696;9.114;2022-11-20T17:48:35;6.80;99.90
1307;DHT22;646;48.696;9.114;2022-11-20T17:51:03;6.90;99.90
1307;DHT22;646;48.696;9.114;2022-11-20T17:53:33;6.80;99.90
1307;DHT22;646;48.696;9.114;2022-11-20T17:55:58;6.90;99.90
1307;DHT22;646;48.696;9.114;2022-11-20T17:58:43;6.10;99.90